Time;durP1;ratioP1;P1;durP2;ratioP2;P2;SDS_P1;SDS_P2;PMS_P1;PMS_P2;Temp;Humidity;BMP_temperature;BMP_pressure;BME280_temperature;BME280_humidity;BME280_pressure;Samples;Min_cycle;Max_cycle;Signal;HPM_P1;HPM_P2
2020/12/22 00:00:34;;;;;;;9.50;8.60;;;9.40;99.90;;;;;;4719272;30;20537;-87
2020/12/22 00:03:00;;;;;;;9.77;8.10;;;9.40;99.90;;;;;;4718840;30;20052;-88
2020/12/22 00:05:26;;;;;;;11.68;8.98;;;9.40;99.90;;;;;;4733522;30;20044;-87
2020/12/22 00:07:52;;;;;;;9.15;8.23;;;9.50;99.90;;;;;;4711651;30;20518;-88
2020/12/22 00:10:18;;;;;;;8.05;7.25;;;9.50;99.90;;;;;;4733575;30;20045;-88
2020/12/22 00:12:44;;;;;;;8.30;7.50;;;9.60;99.90;;;;;;4718199;30;20062;-88
2020/12/22 00:15:10;;;;;;;8.75;7.05;;;9.50;99.90;;;;;;4719090;30;20052;-87
2020/12/22 00:17:41;;;;;;;9.25;7.22;;;9.50;99.90;;;;;;4733253;30;20088;-89
2020/12/22 00:20:06;;;;;;;11.05;7.90;;;9.60;99.90;;;;;;4716841;30;20061;-88
2020/12/22 00:22:32;;;;;;;9.25;7.75;;;9.60;99.90;;;;;;4738417;30;20463;-87
2020/12/22 00:25:00;;;;;;;9.52;7.28;;;9.60;99.90;;;;;;4718020;30;20114;-86
2020/12/22 00:27:26;;;;;;;8.65;7.15;;;9.70;99.90;;;;;;4704470;30;20048;-87
2020/12/22 00:29:52;;;;;;;11.38;7.88;;;9.70;99.90;;;;;;4731016;30;20044;-87
2020/12/22 00:32:18;;;;;;;10.27;6.70;;;9.70;99.90;;;;;;4720244;30;20052;-87
2020/12/22 00:34:43;;;;;;;9.93;7.13;;;9.80;99.90;;;;;;4717975;30;20101;-87
2020/12/22 00:37:09;;;;;;;12.77;7.63;;;9.80;99.90;;;;;;4733291;30;20048;-87
2020/12/22 00:39:35;;;;;;;10.85;7.60;;;9.90;99.90;;;;;;4732741;30;20142;-87
2020/12/22 00:42:01;;;;;;;10.30;7.90;;;9.90;99.90;;;;;;4703529;30;20056;-87
2020/12/22 00:44:27;;;;;;;8.20;6.30;;;9.90;99.90;;;;;;4730805;30;20095;-89
2020/12/22 00:46:54;;;;;;;9.10;7.07;;;10.00;99.90;;;;;;4732141;30;20048;-87
2020/12/22 00:49:20;;;;;;;9.23;7.10;;;10.00;99.90;;;;;;4733266;30;20058;-87
2020/12/22 00:51:45;;;;;;;9.80;7.50;;;10.10;99.90;;;;;;4732684;30;20048;-87
2020/12/22 00:54:12;;;;;;;8.77;5.60;;;10.00;99.90;;;;;;4734246;30;20052;-87
2020/12/22 00:56:37;;;;;;;7.70;6.55;;;10.10;99.90;;;;;;4736501;30;20064;-87
2020/12/22 00:59:03;;;;;;;7.43;6.60;;;10.10;99.90;;;;;;4728452;30;20704;-86
2020/12/22 01:01:30;;;;;;;7.90;6.65;;;10.10;99.90;;;;;;4716524;30;20045;-86
2020/12/22 01:03:59;;;;;;;7.22;6.50;;;10.10;99.90;;;;;;4757766;30;20079;-86
2020/12/22 01:06:26;;;;;;;6.50;5.90;;;10.20;99.90;;;;;;4704742;30;20164;-86
2020/12/22 01:08:52;;;;;;;6.97;6.32;;;10.20;99.90;;;;;;4757057;30;20479;-87
2020/12/22 01:11:19;;;;;;;7.20;6.50;;;10.20;99.90;;;;;;4736561;30;20055;-87
2020/12/22 01:13:45;;;;;;;9.52;6.97;;;10.30;99.90;;;;;;4721344;30;20465;-90
2020/12/22 01:16:12;;;;;;;8.48;6.35;;;10.30;99.90;;;;;;4736915;30;20513;-87
2020/12/22 01:18:38;;;;;;;10.05;5.80;;;10.30;99.90;;;;;;4736847;30;20131;-88
2020/12/22 01:21:04;;;;;;;6.70;6.00;;;10.30;99.90;;;;;;4735876;30;20599;-87
2020/12/22 01:23:29;;;;;;;7.70;5.50;;;10.30;99.90;;;;;;4721948;30;20052;-86
2020/12/22 01:25:55;;;;;;;6.00;5.38;;;10.40;99.90;;;;;;4720871;30;20052;-86
2020/12/22 01:28:21;;;;;;;5.68;5.13;;;10.40;99.90;;;;;;4720986;30;20524;-86
2020/12/22 01:30:47;;;;;;;5.57;5.03;;;10.40;99.90;;;;;;4720520;30;20127;-87
2020/12/22 01:33:13;;;;;;;7.15;5.35;;;10.50;99.90;;;;;;4735710;30;20505;-86
2020/12/22 01:35:38;;;;;;;6.65;5.53;;;10.60;99.90;;;;;;4735440;30;20075;-87
2020/12/22 01:38:04;;;;;;;5.75;4.93;;;10.50;99.90;;;;;;4720229;30;20044;-87
2020/12/22 01:40:30;;;;;;;4.90;4.40;;;10.60;99.90;;;;;;4735671;30;20123;-88
2020/12/22 01:42:56;;;;;;;6.15;4.78;;;10.60;99.90;;;;;;4750543;30;20567;-86
2020/12/22 01:45:22;;;;;;;4.90;4.43;;;10.60;99.90;;;;;;4720784;30;20048;-86
2020/12/22 01:47:49;;;;;;;4.85;4.35;;;10.60;99.90;;;;;;4734977;30;20071;-89
2020/12/22 01:50:17;;;;;;;4.07;3.70;;;10.70;99.90;;;;;;4720695;30;20055;-87
2020/12/22 01:52:45;;;;;;;4.32;3.92;;;10.70;99.90;;;;;;4751285;30;20113;-87
2020/12/22 01:55:10;;;;;;;4.90;4.45;;;10.70;99.90;;;;;;4734415;30;20143;-88
2020/12/22 01:57:36;;;;;;;6.47;4.28;;;10.80;99.90;;;;;;4735275;30;20134;-87
2020/12/22 02:00:05;;;;;;;5.10;4.32;;;10.80;99.90;;;;;;4748259;30;20494;-88
2020/12/22 02:02:31;;;;;;;4.82;4.38;;;10.80;99.90;;;;;;4735204;30;20056;-87
2020/12/22 02:04:57;;;;;;;6.40;4.40;;;10.80;99.90;;;;;;4720450;30;20052;-88
2020/12/22 02:07:23;;;;;;;7.15;4.68;;;10.90;99.90;;;;;;4747221;30;20481;-87
2020/12/22 02:09:49;;;;;;;5.35;4.85;;;10.90;99.90;;;;;;4746356;30;20072;-89
2020/12/22 02:12:18;;;;;;;7.07;5.15;;;10.90;99.90;;;;;;4734585;30;20051;-86
2020/12/22 02:14:45;;;;;;;5.35;4.55;;;10.90;99.90;;;;;;4730022;30;20061;-83
2020/12/22 02:17:12;;;;;;;6.20;4.60;;;10.90;99.90;;;;;;4731680;30;20055;-84
2020/12/22 02:19:38;;;;;;;6.70;4.57;;;10.90;99.90;;;;;;4733710;30;20056;-88
2020/12/22 02:22:05;;;;;;;5.65;4.45;;;10.90;99.90;;;;;;4728552;30;20508;-84
2020/12/22 02:24:34;;;;;;;5.85;3.97;;;11.00;99.90;;;;;;4733640;30;20509;-86
2020/12/22 02:27:02;;;;;;;6.97;3.70;;;11.00;99.90;;;;;;4749111;30;20052;-85
2020/12/22 02:29:28;;;;;;;5.68;3.38;;;11.00;99.90;;;;;;4719921;30;20143;-85
2020/12/22 02:31:54;;;;;;;3.60;3.15;;;10.90;99.90;;;;;;4733847;30;20058;-86
2020/12/22 02:34:20;;;;;;;5.80;3.00;;;11.00;99.90;;;;;;4733501;30;20048;-84
2020/12/22 02:36:46;;;;;;;4.90;3.17;;;11.00;99.90;;;;;;4705177;30;20573;-85
2020/12/22 02:39:12;;;;;;;5.68;2.75;;;11.00;99.90;;;;;;4733209;30;21060;-85
2020/12/22 02:41:38;;;;;;;2.70;2.47;;;11.00;99.90;;;;;;4733297;30;20048;-85
2020/12/22 02:44:04;;;;;;;9.02;2.90;;;11.00;99.90;;;;;;4718663;30;20052;-85
2020/12/22 02:46:30;;;;;;;8.18;2.67;;;11.00;99.90;;;;;;4719065;30;20047;-84
2020/12/22 02:48:55;;;;;;;6.55;2.33;;;11.00;99.90;;;;;;4733003;30;20052;-84
2020/12/22 02:51:21;;;;;;;6.20;2.50;;;11.10;99.90;;;;;;4733368;30;20148;-84
2020/12/22 02:53:47;;;;;;;9.57;3.05;;;11.10;99.90;;;;;;4733290;30;20060;-85
2020/12/22 02:56:13;;;;;;;7.03;2.83;;;11.10;99.90;;;;;;4718346;30;20095;-86
2020/12/22 02:58:38;;;;;;;2.97;2.50;;;11.10;99.90;;;;;;4734013;30;20063;-84
2020/12/22 03:01:04;;;;;;;2.33;2.13;;;11.10;99.90;;;;;;4720105;30;20542;-86
2020/12/22 03:03:30;;;;;;;2.22;1.40;;;11.10;99.90;;;;;;4733387;30;20596;-85
2020/12/22 03:05:56;;;;;;;2.20;1.50;;;11.10;99.90;;;;;;4733683;30;20052;-85
2020/12/22 03:08:21;;;;;;;1.27;1.17;;;11.10;99.90;;;;;;4734000;30;20054;-85
2020/12/22 03:10:47;;;;;;;1.67;1.58;;;11.20;99.90;;;;;;4733670;30;20409;-86
2020/12/22 03:13:14;;;;;;;1.85;1.50;;;11.20;99.90;;;;;;4748880;30;20101;-86
2020/12/22 03:15:39;;;;;;;1.77;1.67;;;11.30;99.90;;;;;;4749464;30;20052;-85
2020/12/22 03:18:06;;;;;;;2.83;1.60;;;11.30;99.90;;;;;;4720351;30;20119;-85
2020/12/22 03:20:32;;;;;;;2.33;2.03;;;11.30;99.90;;;;;;4704783;30;20125;-85
2020/12/22 03:22:57;;;;;;;5.07;1.80;;;11.30;99.90;;;;;;4718024;30;20489;-85
2020/12/22 03:25:23;;;;;;;6.72;2.35;;;11.40;99.90;;;;;;4718777;30;20054;-85
2020/12/22 03:27:49;;;;;;;6.45;2.95;;;11.40;99.90;;;;;;4733177;30;20056;-84
2020/12/22 03:30:16;;;;;;;5.65;3.28;;;11.50;99.90;;;;;;4732579;30;20113;-85
2020/12/22 03:32:42;;;;;;;6.70;3.47;;;11.50;99.90;;;;;;4732939;30;20139;-85
2020/12/22 03:35:10;;;;;;;9.20;3.95;;;11.50;99.90;;;;;;4718551;30;20097;-87
2020/12/22 03:37:37;;;;;;;4.05;3.42;;;11.50;99.90;;;;;;4733186;30;20073;-85
2020/12/22 03:40:09;;;;;;;5.80;4.05;;;11.50;99.90;;;;;;4732488;30;20101;-85
2020/12/22 03:42:36;;;;;;;7.53;3.83;;;11.60;99.90;;;;;;4748609;30;20052;-86
2020/12/22 03:45:02;;;;;;;4.43;3.70;;;11.50;99.90;;;;;;4717704;30;20044;-85
2020/12/22 03:47:28;;;;;;;4.80;3.78;;;11.60;99.90;;;;;;4730293;30;20055;-86
2020/12/22 03:49:54;;;;;;;4.43;4.00;;;11.60;99.90;;;;;;4715324;30;20131;-89
2020/12/22 03:52:20;;;;;;;3.75;2.70;;;11.60;99.90;;;;;;4716601;30;20185;-86
2020/12/22 03:54:46;;;;;;;1.90;1.80;;;11.60;99.90;;;;;;4719111;30;20064;-86
2020/12/22 03:57:14;;;;;;;2.30;2.10;;;11.60;99.90;;;;;;4732273;30;20563;-86
2020/12/22 03:59:40;;;;;;;5.57;2.45;;;11.50;99.90;;;;;;4712415;30;20044;-85
2020/12/22 04:02:05;;;;;;;1.50;1.40;;;11.60;99.90;;;;;;4717527;30;20055;-86
2020/12/22 04:04:31;;;;;;;1.85;1.75;;;11.60;99.90;;;;;;4732700;30;20485;-87
2020/12/22 04:06:57;;;;;;;1.48;1.15;;;11.60;99.90;;;;;;4732606;30;20052;-91
2020/12/22 04:09:23;;;;;;;4.18;1.80;;;11.60;99.90;;;;;;4717206;30;20048;-86
2020/12/22 04:11:51;;;;;;;3.15;1.95;;;11.60;99.90;;;;;;4719036;30;20045;-87
2020/12/22 04:14:17;;;;;;;4.05;2.33;;;11.60;99.90;;;;;;4732616;30;20064;-86
2020/12/22 04:16:43;;;;;;;2.75;2.55;;;11.60;99.90;;;;;;4733105;30;20572;-87
2020/12/22 04:19:10;;;;;;;5.80;3.75;;;11.60;99.90;;;;;;4747964;30;20127;-85
2020/12/22 04:21:37;;;;;;;3.60;3.20;;;11.60;99.90;;;;;;4733232;30;20091;-86
2020/12/22 04:24:04;;;;;;;5.28;4.05;;;11.60;99.90;;;;;;4718053;30;20409;-87
2020/12/22 04:26:31;;;;;;;8.60;5.03;;;11.60;99.90;;;;;;4706384;30;20511;-86
2020/12/22 04:28:57;;;;;;;12.25;5.82;;;11.60;99.90;;;;;;4749387;30;20127;-89
2020/12/22 04:31:23;;;;;;;11.50;5.65;;;11.60;99.90;;;;;;4736266;30;20052;-87
2020/12/22 04:33:50;;;;;;;14.10;6.60;;;11.50;99.90;;;;;;4736559;30;20386;-86
2020/12/22 04:36:16;;;;;;;17.70;7.45;;;11.50;99.90;;;;;;4735728;30;20048;-86
2020/12/22 04:38:44;;;;;;;18.08;7.70;;;11.60;99.90;;;;;;4736321;30;20056;-87
2020/12/22 04:41:16;;;;;;;17.27;7.28;;;11.60;99.90;;;;;;4720437;30;20052;-87
2020/12/22 04:43:43;;;;;;;21.27;8.13;;;11.60;99.90;;;;;;4736223;30;20155;-86
2020/12/22 04:46:09;;;;;;;17.98;7.95;;;11.60;99.90;;;;;;4751488;30;20083;-86
2020/12/22 04:48:40;;;;;;;20.48;7.93;;;11.60;99.90;;;;;;4751435;30;20044;-86
2020/12/22 04:51:10;;;;;;;28.30;9.23;;;11.60;99.90;;;;;;4720624;30;20076;-86
2020/12/22 04:53:37;;;;;;;;;;;11.60;99.90;;;;;;4736313;30;20048;-86
2020/12/22 04:56:05;;;;;;;25.05;9.40;;;11.60;99.90;;;;;;4735088;30;20431;-88
2020/12/22 04:58:31;;;;;;;18.60;8.07;;;11.60;99.90;;;;;;4751443;30;20137;-86
2020/12/22 05:00:58;;;;;;;20.70;7.55;;;11.60;99.90;;;;;;4736318;30;20060;-86
2020/12/22 05:03:24;;;;;;;17.45;5.82;;;11.60;99.90;;;;;;4735064;30;20501;-86
2020/12/22 05:05:51;;;;;;;17.10;6.10;;;11.60;99.90;;;;;;4751272;30;20068;-86
2020/12/22 05:08:17;;;;;;;24.08;5.38;;;11.60;99.90;;;;;;4734850;30;20049;-85
2020/12/22 05:10:44;;;;;;;17.38;5.65;;;11.60;99.90;;;;;;4731732;30;21628;-85
2020/12/22 05:13:11;;;;;;;19.60;5.07;;;11.60;99.90;;;;;;4720621;30;20044;-85
2020/12/22 05:15:41;;;;;;;27.42;5.13;;;11.70;99.90;;;;;;4735953;30;20501;-87
2020/12/22 05:18:08;;;;;;;27.00;4.93;;;11.70;99.90;;;;;;4721156;30;20059;-87
2020/12/22 05:20:34;;;;;;;21.15;5.05;;;11.80;99.90;;;;;;4736053;30;20058;-87
2020/12/22 05:23:02;;;;;;;17.70;4.82;;;11.80;99.90;;;;;;4721737;30;20064;-86
2020/12/22 05:25:28;;;;;;;19.02;4.45;;;11.80;99.90;;;;;;4735109;30;20494;-85
2020/12/22 05:27:56;;;;;;;23.67;3.92;;;11.70;99.90;;;;;;4720802;30;20056;-85
2020/12/22 05:30:22;;;;;;;20.77;4.28;;;11.70;99.90;;;;;;4750715;30;20048;-87
2020/12/22 05:32:52;;;;;;;17.73;3.58;;;11.70;99.90;;;;;;4751277;30;20044;-86
2020/12/22 05:35:21;;;;;;;24.33;4.30;;;11.70;99.90;;;;;;4734833;30;20498;-86
2020/12/22 05:37:47;;;;;;;15.77;3.35;;;11.70;99.90;;;;;;4735116;30;20054;-86
2020/12/22 05:40:14;;;;;;;22.48;3.17;;;11.70;99.90;;;;;;4720060;30;20044;-89
2020/12/22 05:42:47;;;;;;;24.65;4.10;;;11.80;99.90;;;;;;4737149;30;20080;-87
2020/12/22 05:45:13;;;;;;;21.02;3.22;;;11.80;99.90;;;;;;4727536;30;20052;-88
2020/12/22 05:47:39;;;;;;;22.00;3.83;;;11.70;99.90;;;;;;4720428;30;20579;-86
2020/12/22 05:50:05;;;;;;;15.73;3.05;;;11.80;99.90;;;;;;4734254;30;20056;-88
2020/12/22 05:52:31;;;;;;;14.65;2.65;;;11.70;99.90;;;;;;4733955;30;20056;-86
2020/12/22 05:54:59;;;;;;;20.60;3.15;;;11.70;99.90;;;;;;4734477;30;20073;-87
2020/12/22 05:57:30;;;;;;;12.13;2.42;;;11.80;99.90;;;;;;4731946;30;20032;-88
2020/12/22 05:59:57;;;;;;;9.07;1.92;;;11.70;99.90;;;;;;4745391;30;20051;-87
2020/12/22 06:02:24;;;;;;;18.33;3.35;;;11.70;99.90;;;;;;4735089;30;20052;-88
2020/12/22 06:04:58;;;;;;;12.88;2.45;;;11.80;99.90;;;;;;4735363;30;20056;-85
2020/12/22 06:07:25;;;;;;;28.77;2.90;;;11.70;99.90;;;;;;4734093;30;20398;-86
2020/12/22 06:09:51;;;;;;;14.18;2.42;;;11.70;99.90;;;;;;4743578;30;20118;-85
2020/12/22 06:12:17;;;;;;;15.75;2.90;;;11.70;99.90;;;;;;4734859;30;20107;-86
2020/12/22 06:14:46;;;;;;;11.23;2.47;;;11.70;99.90;;;;;;4735180;30;20056;-85
2020/12/22 06:17:13;;;;;;;14.35;2.97;;;11.70;99.90;;;;;;4750493;30;20052;-85
2020/12/22 06:19:40;;;;;;;14.45;2.97;;;11.70;99.90;;;;;;4734883;30;20052;-87
2020/12/22 06:22:10;;;;;;;13.85;2.90;;;11.70;99.90;;;;;;4720577;30;20143;-87
2020/12/22 06:24:36;;;;;;;13.60;2.88;;;11.70;99.90;;;;;;4719745;30;20114;-87
2020/12/22 06:27:03;;;;;;;14.10;2.63;;;11.80;99.90;;;;;;4734418;30;20052;-85
2020/12/22 06:29:29;;;;;;;18.38;3.17;;;11.80;99.90;;;;;;4733992;30;20070;-85
2020/12/22 06:31:55;;;;;;;17.38;3.08;;;11.80;99.90;;;;;;4734621;30;20052;-86
2020/12/22 06:34:26;;;;;;;22.35;2.80;;;11.80;99.90;;;;;;4733549;30;20063;-85
2020/12/22 06:36:59;;;;;;;17.30;2.78;;;11.80;99.90;;;;;;4749854;30;20054;-85
2020/12/22 06:39:49;;;;;;;18.55;2.85;;;11.80;99.90;;;;;;4733282;30;20052;-84
2020/12/22 06:42:30;;;;;;;20.00;2.80;;;11.80;99.90;;;;;;4749060;30;20055;-85
2020/12/22 06:45:35;;;;;;;12.27;2.60;;;11.80;99.90;;;;;;4719551;30;20067;-85
2020/12/22 06:48:01;;;;;;;11.80;1.90;;;11.80;99.90;;;;;;4733754;30;20060;-86
2020/12/22 06:50:40;;;;;;;13.02;1.73;;;11.80;99.90;;;;;;4733048;30;20106;-86
2020/12/22 06:53:07;;;;;;;11.15;2.03;;;11.80;99.90;;;;;;4733932;30;20044;-86
2020/12/22 06:55:50;;;;;;;8.80;1.80;;;11.80;99.90;;;;;;4733815;30;20068;-85
2020/12/22 06:58:48;;;;;;;5.63;1.60;;;11.80;99.90;;;;;;4733776;30;20044;-85
2020/12/22 07:01:26;;;;;;;11.57;1.67;;;11.70;99.90;;;;;;4733689;30;20052;-87
2020/12/22 07:04:13;;;;;;;14.20;2.28;;;11.70;99.90;;;;;;4719942;30;20383;-85
2020/12/22 07:06:45;;;;;;;9.60;2.40;;;11.70;99.90;;;;;;4733271;30;20064;-87
2020/12/22 07:09:15;;;;;;;11.23;2.60;;;11.70;99.90;;;;;;4705718;30;20206;-90
2020/12/22 07:11:41;;;;;;;18.48;2.80;;;11.70;99.90;;;;;;4749422;30;20078;-86
2020/12/22 07:14:07;;;;;;;13.80;2.72;;;11.80;99.90;;;;;;4720110;30;20060;-87
2020/12/22 07:17:00;;;;;;;19.25;3.22;;;11.80;99.90;;;;;;4702122;30;20131;-87
2020/12/22 07:19:30;;;;;;;15.45;2.45;;;11.80;99.90;;;;;;4748022;30;20486;-87
2020/12/22 07:21:57;;;;;;;18.38;2.92;;;11.70;99.90;;;;;;4734159;30;20060;-87
2020/12/22 07:24:25;;;;;;;19.77;3.00;;;11.70;99.90;;;;;;4746189;30;20044;-86
2020/12/22 07:26:51;;;;;;;14.00;3.00;;;11.80;99.90;;;;;;4734376;30;20493;-86
2020/12/22 07:29:17;;;;;;;30.05;3.63;;;11.80;99.90;;;;;;4749201;30;20069;-86
2020/12/22 07:31:45;;;;;;;27.17;3.60;;;11.80;99.90;;;;;;4719444;30;20398;-86
2020/12/22 07:34:11;;;;;;;23.40;3.70;;;11.80;99.90;;;;;;4719373;30;20056;-87
2020/12/22 07:36:37;;;;;;;22.85;3.53;;;11.80;99.90;;;;;;4704604;30;20401;-86
2020/12/22 07:39:23;;;;;;;24.13;3.88;;;11.80;99.90;;;;;;4719295;30;20123;-87
2020/12/22 07:41:52;;;;;;;21.05;4.03;;;11.80;99.90;;;;;;4735978;30;20490;-87
2020/12/22 07:44:20;;;;;;;25.13;3.70;;;11.80;99.90;;;;;;4732613;30;20060;-87
2020/12/22 07:46:48;;;;;;;23.90;3.65;;;11.80;99.90;;;;;;4733058;30;20048;-87
2020/12/22 07:49:15;;;;;;;26.92;3.78;;;11.70;99.90;;;;;;4732632;30;20137;-89
2020/12/22 07:51:45;;;;;;;27.52;3.65;;;11.70;99.90;;;;;;4748720;30;20127;-86
2020/12/22 07:54:11;;;;;;;26.75;4.13;;;11.70;99.90;;;;;;4733221;30;20066;-87
2020/12/22 07:56:41;;;;;;;26.75;3.63;;;11.70;99.90;;;;;;4732713;30;20592;-86
2020/12/22 07:59:09;;;;;;;24.27;3.30;;;11.70;99.90;;;;;;4733112;30;20102;-86
2020/12/22 08:01:43;;;;;;;26.27;3.72;;;11.60;99.90;;;;;;4732038;30;20050;-87
2020/12/22 08:04:12;;;;;;;26.67;3.17;;;11.60;99.90;;;;;;4717801;30;20064;-85
2020/12/22 08:06:38;;;;;;;26.77;3.63;;;11.60;99.90;;;;;;4748311;30;20044;-85
2020/12/22 08:09:04;;;;;;;24.60;3.88;;;11.60;99.90;;;;;;4733456;30;20185;-86
2020/12/22 08:11:31;;;;;;;21.40;3.13;;;11.60;99.90;;;;;;4731952;30;20553;-84
2020/12/22 08:14:00;;;;;;;20.90;3.42;;;11.60;99.90;;;;;;4717674;30;20106;-85
2020/12/22 08:16:26;;;;;;;22.42;4.15;;;11.60;99.90;;;;;;4731679;30;20059;-85
2020/12/22 08:18:53;;;;;;;24.88;4.07;;;11.60;99.90;;;;;;4732925;30;20405;-86
2020/12/22 08:21:19;;;;;;;23.38;3.35;;;11.60;99.90;;;;;;4736465;30;20327;-87
2020/12/22 08:23:47;;;;;;;21.60;3.63;;;11.60;99.90;;;;;;4732773;30;20048;-84
2020/12/22 08:26:17;;;;;;;17.38;3.80;;;11.50;99.90;;;;;;4717730;30;20135;-86
2020/12/22 08:28:51;;;;;;;20.90;8.43;;;11.50;99.90;;;;;;4732343;30;20052;-86
2020/12/22 08:31:20;;;;;;;20.45;11.32;;;11.30;99.90;;;;;;4732465;30;20044;-88
2020/12/22 08:33:54;;;;;;;15.30;7.15;;;11.10;99.90;;;;;;4717868;30;20386;-86
2020/12/22 08:36:22;;;;;;;6.63;2.10;;;10.90;99.90;;;;;;4744981;30;20131;-89
2020/12/22 08:38:48;;;;;;;9.10;2.50;;;10.70;99.90;;;;;;4715226;30;20449;-85
2020/12/22 08:41:21;;;;;;;5.55;1.80;;;10.50;99.90;;;;;;4717510;30;20048;-85
2020/12/22 08:43:48;;;;;;;5.50;1.63;;;10.40;99.90;;;;;;4732540;30;20422;-85
2020/12/22 08:46:15;;;;;;;4.45;1.70;;;10.30;99.90;;;;;;4717774;30;20048;-84
2020/12/22 08:48:41;;;;;;;4.78;1.05;;;10.20;99.90;;;;;;4720267;30;20607;-84
2020/12/22 08:51:07;;;;;;;1.55;0.88;;;10.10;99.90;;;;;;4748197;30;20145;-84
2020/12/22 08:53:33;;;;;;;3.13;1.30;;;9.90;99.90;;;;;;4741359;30;20405;-85
2020/12/22 08:56:06;;;;;;;1.98;1.75;;;9.90;99.90;;;;;;4706518;30;20063;-87
2020/12/22 08:58:32;;;;;;;4.22;1.85;;;9.80;99.90;;;;;;4702520;30;20059;-86
2020/12/22 09:00:58;;;;;;;8.68;5.63;;;9.80;99.90;;;;;;4741765;30;20049;-86
2020/12/22 09:03:24;;;;;;;13.80;8.98;;;9.80;99.90;;;;;;4712906;30;20052;-88
2020/12/22 09:05:50;;;;;;;10.15;6.45;;;9.70;99.90;;;;;;4716465;30;20048;-86
2020/12/22 09:08:16;;;;;;;20.65;8.68;;;9.60;99.90;;;;;;4723414;30;20141;-86
2020/12/22 09:10:48;;;;;;;15.20;9.82;;;9.60;99.90;;;;;;4716762;30;20493;-86
2020/12/22 09:13:16;;;;;;;26.90;10.30;;;9.50;99.90;;;;;;4732410;30;20181;-87
2020/12/22 09:15:55;;;;;;;19.85;5.82;;;9.40;99.90;;;;;;4718158;30;20647;-86
2020/12/22 09:18:21;;;;;;;20.67;8.02;;;9.50;99.90;;;;;;4727650;30;20083;-89
2020/12/22 09:21:05;;;;;;;13.63;5.85;;;9.50;99.90;;;;;;4740962;30;20083;-87
2020/12/22 09:23:31;;;;;;;20.40;6.88;;;9.50;99.90;;;;;;4734159;30;20192;-87
2020/12/22 09:25:57;;;;;;;28.38;8.80;;;9.50;99.90;;;;;;4734049;30;20056;-86
2020/12/22 09:28:23;;;;;;;14.15;4.30;;;9.40;99.90;;;;;;4724708;30;20048;-88
2020/12/22 09:30:49;;;;;;;28.50;6.68;;;9.50;99.90;;;;;;4718468;30;20099;-86
2020/12/22 09:33:18;;;;;;;14.25;3.88;;;9.40;99.90;;;;;;4706055;30;20080;-87
2020/12/22 09:35:43;;;;;;;18.05;4.90;;;9.40;99.90;;;;;;4696821;30;20071;-87
2020/12/22 09:38:09;;;;;;;11.07;4.00;;;9.40;99.90;;;;;;4710569;30;20043;-86
2020/12/22 09:40:35;;;;;;;19.85;5.53;;;9.40;99.90;;;;;;4718840;30;20490;-87
2020/12/22 09:43:01;;;;;;;14.85;3.45;;;9.50;99.90;;;;;;4728860;30;20080;-86
2020/12/22 09:45:26;;;;;;;15.43;3.70;;;9.50;99.90;;;;;;4716370;30;20064;-86
2020/12/22 09:47:52;;;;;;;15.95;4.53;;;9.50;99.90;;;;;;4722637;30;20080;-86
2020/12/22 09:50:18;;;;;;;8.30;2.22;;;9.50;99.90;;;;;;4737069;30;20079;-86
2020/12/22 09:52:44;;;;;;;18.95;4.13;;;9.50;99.90;;;;;;4739543;30;20044;-86
2020/12/22 09:55:10;;;;;;;6.15;2.50;;;9.50;99.90;;;;;;4710102;30;20056;-86
2020/12/22 09:57:35;;;;;;;17.35;3.80;;;9.50;99.90;;;;;;4719165;30;20055;-86
2020/12/22 10:00:03;;;;;;;17.08;2.88;;;9.50;99.90;;;;;;4734166;30;20051;-86
2020/12/22 10:02:29;;;;;;;11.73;3.67;;;9.50;99.90;;;;;;4731036;30;20052;-88
2020/12/22 10:04:55;;;;;;;11.27;3.55;;;9.60;99.90;;;;;;4740420;30;20047;-87
2020/12/22 10:07:21;;;;;;;17.15;3.50;;;9.60;99.90;;;;;;4704789;30;20064;-86
2020/12/22 10:09:46;;;;;;;17.38;3.42;;;9.60;99.90;;;;;;4748673;30;20048;-85
2020/12/22 10:12:12;;;;;;;12.80;3.70;;;9.60;99.90;;;;;;4719160;30;20546;-85
2020/12/22 10:14:38;;;;;;;8.15;2.50;;;9.60;99.90;;;;;;4732397;30;20064;-85
2020/12/22 10:17:04;;;;;;;5.40;2.20;;;9.60;99.90;;;;;;4733408;30;20051;-84
2020/12/22 10:19:29;;;;;;;19.75;3.28;;;9.70;99.90;;;;;;4718299;30;20040;-86
2020/12/22 10:21:55;;;;;;;14.05;2.15;;;9.70;99.90;;;;;;4719054;30;20730;-87
2020/12/22 10:24:21;;;;;;;9.38;2.10;;;9.70;99.90;;;;;;4718852;30;20122;-87
2020/12/22 10:26:47;;;;;;;12.73;2.28;;;9.70;99.90;;;;;;4727807;30;20048;-86
2020/12/22 10:29:13;;;;;;;12.60;3.17;;;9.70;99.70;;;;;;4743695;30;20050;-87
2020/12/22 10:31:39;;;;;;;12.02;3.13;;;9.80;99.90;;;;;;4732525;30;20048;-88
2020/12/22 10:34:04;;;;;;;9.65;3.20;;;9.70;99.90;;;;;;4733362;30;20050;-84
2020/12/22 10:36:30;;;;;;;15.85;2.85;;;9.70;99.90;;;;;;4731960;30;20060;-88
2020/12/22 10:38:57;;;;;;;15.50;6.32;;;9.70;99.90;;;;;;4733352;30;20459;-86
2020/12/22 10:41:24;;;;;;;15.63;4.65;;;9.50;99.90;;;;;;4727510;30;20794;-86
2020/12/22 10:43:51;;;;;;;16.48;5.03;;;9.50;99.90;;;;;;4732018;30;20088;-87
2020/12/22 10:46:17;;;;;;;9.25;4.03;;;9.40;99.90;;;;;;4731378;30;20059;-86
2020/12/22 10:48:44;;;;;;;18.27;5.65;;;9.50;99.90;;;;;;4725876;30;20491;-86
2020/12/22 10:51:10;;;;;;;9.45;2.38;;;9.50;99.90;;;;;;4734199;30;20470;-86
2020/12/22 10:53:36;;;;;;;12.73;1.92;;;9.60;99.90;;;;;;4714997;30;20053;-86
2020/12/22 10:56:02;;;;;;;21.67;2.63;;;9.50;99.90;;;;;;4729194;30;20063;-86
2020/12/22 10:58:28;;;;;;;12.57;2.00;;;9.60;99.90;;;;;;4732974;30;20048;-86
2020/12/22 11:00:54;;;;;;;10.60;1.92;;;9.60;99.90;;;;;;4719691;30;20482;-86
2020/12/22 11:03:20;;;;;;;9.77;1.80;;;9.60;99.90;;;;;;4715623;30;20060;-86
2020/12/22 11:06:08;;;;;;;14.70;1.52;;;9.60;99.90;;;;;;4713503;30;20102;-86
2020/12/22 11:08:34;;;;;;;14.05;2.05;;;9.60;99.90;;;;;;4729057;30;20087;-87
2020/12/22 11:11:00;;;;;;;8.63;1.70;;;9.60;99.90;;;;;;4733292;30;20146;-87
2020/12/22 11:13:26;;;;;;;13.52;2.05;;;9.60;99.90;;;;;;4733517;30;20044;-87
2020/12/22 11:15:52;;;;;;;21.45;2.45;;;9.60;99.90;;;;;;4745581;30;20055;-85
2020/12/22 11:18:18;;;;;;;18.35;2.67;;;9.60;99.90;;;;;;4719095;30;20395;-87
2020/12/22 11:20:44;;;;;;;10.73;1.92;;;9.60;99.90;;;;;;4721466;30;20052;-88
2020/12/22 11:23:10;;;;;;;15.23;2.25;;;9.60;99.90;;;;;;4716342;30;20048;-88
2020/12/22 11:25:35;;;;;;;19.38;2.00;;;9.70;99.90;;;;;;4724168;30;20052;-88
2020/12/22 11:28:01;;;;;;;11.55;1.83;;;9.70;99.90;;;;;;4729656;30;20051;-87
2020/12/22 11:30:27;;;;;;;10.45;1.52;;;9.70;99.90;;;;;;4720180;30;20048;-89
2020/12/22 11:32:53;;;;;;;12.00;2.05;;;9.70;99.90;;;;;;4738715;30;20829;-88
2020/12/22 11:35:19;;;;;;;16.25;1.70;;;9.70;99.90;;;;;;4719518;30;20062;-88
2020/12/22 11:37:46;;;;;;;13.18;1.45;;;9.80;99.80;;;;;;4701059;30;20076;-89
2020/12/22 11:40:12;;;;;;;14.13;1.52;;;9.80;99.90;;;;;;4721426;30;20040;-86
2020/12/22 11:42:38;;;;;;;19.73;2.47;;;9.80;99.90;;;;;;4714050;30;20111;-86
2020/12/22 11:45:07;;;;;;;19.27;2.10;;;9.70;99.90;;;;;;4721786;30;20073;-87
2020/12/22 11:47:34;;;;;;;14.32;2.38;;;9.60;99.90;;;;;;4739921;30;20624;-87
2020/12/22 11:50:00;;;;;;;9.23;2.67;;;9.60;99.90;;;;;;4738175;30;20107;-85
2020/12/22 11:52:26;;;;;;;10.90;1.50;;;9.60;99.60;;;;;;4728760;30;20123;-85
2020/12/22 11:54:52;;;;;;;8.25;1.83;;;9.70;99.80;;;;;;4733333;30;20301;-86
2020/12/22 11:57:18;;;;;;;10.10;3.72;;;9.70;99.50;;;;;;4732973;30;20060;-89
2020/12/22 11:59:43;;;;;;;14.05;2.13;;;9.70;99.60;;;;;;4731304;30;20413;-86
2020/12/22 12:02:09;;;;;;;13.20;1.80;;;9.70;99.20;;;;;;4732213;30;20075;-87
2020/12/22 12:04:35;;;;;;;13.00;1.35;;;9.70;99.10;;;;;;4717356;30;20048;-87
2020/12/22 12:07:01;;;;;;;10.15;1.45;;;9.70;99.10;;;;;;4716443;30;20071;-85
2020/12/22 12:09:27;;;;;;;13.27;1.60;;;9.70;99.00;;;;;;4718321;30;20048;-88
2020/12/22 12:11:53;;;;;;;11.95;1.13;;;9.70;99.10;;;;;;4731123;30;20044;-86
2020/12/22 12:14:19;;;;;;;11.68;2.17;;;9.70;99.10;;;;;;4731313;30;20059;-86
2020/12/22 12:16:46;;;;;;;19.45;2.20;;;9.60;99.10;;;;;;4729270;30;20052;-85
2020/12/22 12:19:12;;;;;;;12.23;1.73;;;9.60;98.70;;;;;;4724809;30;20203;-85
2020/12/22 12:21:38;;;;;;;17.38;2.00;;;9.60;98.80;;;;;;4715472;30;20049;-88
2020/12/22 12:24:04;;;;;;;13.75;2.58;;;9.60;99.20;;;;;;4702710;30;20426;-86
2020/12/22 12:26:30;;;;;;;13.80;1.83;;;9.60;99.20;;;;;;4721261;30;20580;-87
2020/12/22 12:28:56;;;;;;;15.85;1.80;;;9.60;98.90;;;;;;4714997;30;20059;-87
2020/12/22 12:31:24;;;;;;;15.35;2.40;;;9.60;98.60;;;;;;4731140;30;20040;-86
2020/12/22 12:33:50;;;;;;;18.70;2.80;;;9.60;98.30;;;;;;4715771;30;20144;-86
2020/12/22 12:36:16;;;;;;;18.33;2.58;;;9.60;97.80;;;;;;4746229;30;20044;-86
2020/12/22 12:38:42;;;;;;;13.43;2.10;;;9.60;98.40;;;;;;4716367;30;20058;-86
2020/12/22 12:41:12;;;;;;;14.07;3.13;;;9.60;98.40;;;;;;4715967;30;20036;-86
2020/12/22 12:43:38;;;;;;;15.57;2.45;;;9.60;97.40;;;;;;4746743;30;20087;-88
2020/12/22 12:46:08;;;;;;;7.93;1.52;;;9.50;97.30;;;;;;4733408;30;20051;-86